sensor_id;sensor_type;location;lat;lon;timestamp;temperature;humidity
32895;DHT22;19251;49.484;8.260;2022-07-29T00:02:32;22.50;13.60
32895;DHT22;19251;49.484;8.260;2022-07-29T00:07:35;22.60;13.60
32895;DHT22;19251;49.484;8.260;2022-07-29T00:12:37;22.60;14.40
32895;DHT22;19251;49.484;8.260;2022-07-29T00:17:40;22.30;13.90
32895;DHT22;19251;49.484;8.260;2022-07-29T00:22:42;22.40;14.30
32895;DHT22;19251;49.484;8.260;2022-07-29T00:27:44;22.50;14.10
32895;DHT22;19251;49.484;8.260;2022-07-29T00:32:48;22.60;15.20
32895;DHT22;19251;49.484;8.260;2022-07-29T00:37:50;22.80;14.20
32895;DHT22;19251;49.484;8.260;2022-07-29T00:42:53;22.70;14.80
32895;DHT22;19251;49.484;8.260;2022-07-29T00:47:55;22.70;14.60
32895;DHT22;19251;49.484;8.260;2022-07-29T00:52:58;22.80;13.80
32895;DHT22;19251;49.484;8.260;2022-07-29T00:58:01;22.60;14.10
32895;DHT22;19251;49.484;8.260;2022-07-29T01:03:03;22.90;13.90
32895;DHT22;19251;49.484;8.260;2022-07-29T01:08:05;22.80;13.90
32895;DHT22;19251;49.484;8.260;2022-07-29T01:13:10;22.70;14.50
32895;DHT22;19251;49.484;8.260;2022-07-29T01:18:18;22.70;13.80
32895;DHT22;19251;49.484;8.260;2022-07-29T01:23:56;22.00;13.30
32895;DHT22;19251;49.484;8.260;2022-07-29T01:29:21;22.60;13.90
32895;DHT22;19251;49.484;8.260;2022-07-29T01:39:43;22.40;14.20
32895;DHT22;19251;49.484;8.260;2022-07-29T01:45:00;22.20;13.50
32895;DHT22;19251;49.484;8.260;2022-07-29T01:50:07;22.20;14.30
32895;DHT22;19251;49.484;8.260;2022-07-29T01:55:15;22.20;13.90
32895;DHT22;19251;49.484;8.260;2022-07-29T02:00:18;22.00;13.90
32895;DHT22;19251;49.484;8.260;2022-07-29T02:05:23;22.00;14.10
32895;DHT22;19251;49.484;8.260;2022-07-29T02:10:31;21.90;14.70
32895;DHT22;19251;49.484;8.260;2022-07-29T02:15:35;21.40;14.00
32895;DHT22;19251;49.484;8.260;2022-07-29T02:20:39;21.70;14.60
32895;DHT22;19251;49.484;8.260;2022-07-29T02:25:42;21.30;14.90
32895;DHT22;19251;49.484;8.260;2022-07-29T02:30:47;21.50;15.40
32895;DHT22;19251;49.484;8.260;2022-07-29T02:35:50;21.30;15.50
32895;DHT22;19251;49.484;8.260;2022-07-29T02:40:55;21.10;14.90
32895;DHT22;19251;49.484;8.260;2022-07-29T02:45:59;21.20;15.90
32895;DHT22;19251;49.484;8.260;2022-07-29T02:51:10;21.00;15.90
32895;DHT22;19251;49.484;8.260;2022-07-29T02:56:35;20.80;15.20
32895;DHT22;19251;49.484;8.260;2022-07-29T03:01:43;20.70;15.70
32895;DHT22;19251;49.484;8.260;2022-07-29T03:06:46;20.60;15.90
32895;DHT22;19251;49.484;8.260;2022-07-29T03:11:49;20.60;16.50
32895;DHT22;19251;49.484;8.260;2022-07-29T03:16:52;20.60;15.90
32895;DHT22;19251;49.484;8.260;2022-07-29T03:21:55;20.60;16.70
32895;DHT22;19251;49.484;8.260;2022-07-29T03:26:58;20.50;16.10
32895;DHT22;19251;49.484;8.260;2022-07-29T03:32:03;20.40;16.90
32895;DHT22;19251;49.484;8.260;2022-07-29T03:37:09;20.30;17.20
32895;DHT22;19251;49.484;8.260;2022-07-29T03:42:14;20.20;17.30
32895;DHT22;19251;49.484;8.260;2022-07-29T03:47:20;20.10;17.30
32895;DHT22;19251;49.484;8.260;2022-07-29T03:52:44;20.00;17.50
32895;DHT22;19251;49.484;8.260;2022-07-29T03:57:47;20.00;17.60
32895;DHT22;19251;49.484;8.260;2022-07-29T04:02:49;20.00;18.10
32895;DHT22;19251;49.484;8.260;2022-07-29T04:07:53;20.00;17.60
32895;DHT22;19251;49.484;8.260;2022-07-29T04:12:55;19.90;17.30
32895;DHT22;19251;49.484;8.260;2022-07-29T04:17:58;19.70;17.80
32895;DHT22;19251;49.484;8.260;2022-07-29T04:28:03;19.80;17.50
32895;DHT22;19251;49.484;8.260;2022-07-29T04:33:06;19.60;17.60
32895;DHT22;19251;49.484;8.260;2022-07-29T04:38:09;19.90;17.80
32895;DHT22;19251;49.484;8.260;2022-07-29T04:43:17;19.60;18.30
32895;DHT22;19251;49.484;8.260;2022-07-29T04:48:23;19.90;18.40
32895;DHT22;19251;49.484;8.260;2022-07-29T04:53:30;20.10;18.60
32895;DHT22;19251;49.484;8.260;2022-07-29T04:58:34;20.00;19.40
32895;DHT22;19251;49.484;8.260;2022-07-29T05:03:37;20.10;19.60
32895;DHT22;19251;49.484;8.260;2022-07-29T05:08:39;19.90;19.50
32895;DHT22;19251;49.484;8.260;2022-07-29T05:13:43;20.20;19.80
32895;DHT22;19251;49.484;8.260;2022-07-29T05:18:48;20.00;19.10
32895;DHT22;19251;49.484;8.260;2022-07-29T05:23:50;20.20;19.90
32895;DHT22;19251;49.484;8.260;2022-07-29T05:28:52;20.40;20.00
32895;DHT22;19251;49.484;8.260;2022-07-29T05:33:55;20.10;19.80
32895;DHT22;19251;49.484;8.260;2022-07-29T05:38:59;20.50;20.20
32895;DHT22;19251;49.484;8.260;2022-07-29T05:44:01;20.70;19.70
32895;DHT22;19251;49.484;8.260;2022-07-29T05:49:04;21.30;19.30
32895;DHT22;19251;49.484;8.260;2022-07-29T05:54:09;21.30;19.00
32895;DHT22;19251;49.484;8.260;2022-07-29T05:59:11;21.00;19.20
32895;DHT22;19251;49.484;8.260;2022-07-29T06:04:19;21.80;18.40
32895;DHT22;19251;49.484;8.260;2022-07-29T06:09:22;22.10;17.80
32895;DHT22;19251;49.484;8.260;2022-07-29T06:14:25;22.20;18.30
32895;DHT22;19251;49.484;8.260;2022-07-29T06:19:28;22.80;16.50
32895;DHT22;19251;49.484;8.260;2022-07-29T06:24:30;22.80;17.10
32895;DHT22;19251;49.484;8.260;2022-07-29T06:29:33;23.20;17.70
32895;DHT22;19251;49.484;8.260;2022-07-29T06:34:37;23.40;16.10
32895;DHT22;19251;49.484;8.260;2022-07-29T06:39:41;23.70;16.20
32895;DHT22;19251;49.484;8.260;2022-07-29T06:44:43;24.30;15.10
32895;DHT22;19251;49.484;8.260;2022-07-29T06:49:46;24.40;14.90
32895;DHT22;19251;49.484;8.260;2022-07-29T06:54:48;24.50;14.70
32895;DHT22;19251;49.484;8.260;2022-07-29T06:59:50;24.80;14.30
32895;DHT22;19251;49.484;8.260;2022-07-29T07:04:53;25.00;14.20
32895;DHT22;19251;49.484;8.260;2022-07-29T07:09:55;25.00;14.70
32895;DHT22;19251;49.484;8.260;2022-07-29T07:14:57;25.20;14.50
32895;DHT22;19251;49.484;8.260;2022-07-29T07:19:59;25.30;14.70
32895;DHT22;19251;49.484;8.260;2022-07-29T07:25:01;25.50;14.40
32895;DHT22;19251;49.484;8.260;2022-07-29T07:30:04;25.40;14.30
32895;DHT22;19251;49.484;8.260;2022-07-29T07:35:10;25.40;14.10
32895;DHT22;19251;49.484;8.260;2022-07-29T07:40:13;26.00;14.10
32895;DHT22;19251;49.484;8.260;2022-07-29T07:45:20;26.00;14.30
32895;DHT22;19251;49.484;8.260;2022-07-29T07:50:22;26.10;13.70
32895;DHT22;19251;49.484;8.260;2022-07-29T07:55:24;26.50;13.70
32895;DHT22;19251;49.484;8.260;2022-07-29T08:00:27;26.40;14.20
32895;DHT22;19251;49.484;8.260;2022-07-29T08:05:29;26.50;13.80
32895;DHT22;19251;49.484;8.260;2022-07-29T08:10:31;26.70;13.70
32895;DHT22;19251;49.484;8.260;2022-07-29T08:16:00;26.70;13.60
32895;DHT22;19251;49.484;8.260;2022-07-29T08:21:04;27.10;13.80
32895;DHT22;19251;49.484;8.260;2022-07-29T08:26:10;27.20;13.90
32895;DHT22;19251;49.484;8.260;2022-07-29T08:31:13;27.20;13.90
32895;DHT22;19251;49.484;8.260;2022-07-29T08:36:15;27.70;13.80
32895;DHT22;19251;49.484;8.260;2022-07-29T08:41:18;28.10;13.50
32895;DHT22;19251;49.484;8.260;2022-07-29T08:46:21;28.10;13.50
32895;DHT22;19251;49.484;8.260;2022-07-29T08:51:25;28.40;13.10
32895;DHT22;19251;49.484;8.260;2022-07-29T08:56:29;28.50;12.50
32895;DHT22;19251;49.484;8.260;2022-07-29T09:01:33;28.60;13.00
32895;DHT22;19251;49.484;8.260;2022-07-29T09:06:47;28.50;12.50
32895;DHT22;19251;49.484;8.260;2022-07-29T09:11:50;28.60;12.90
32895;DHT22;19251;49.484;8.260;2022-07-29T09:16:56;28.80;11.80
32895;DHT22;19251;49.484;8.260;2022-07-29T09:22:02;28.90;11.90
32895;DHT22;19251;49.484;8.260;2022-07-29T09:32:21;29.50;11.90
32895;DHT22;19251;49.484;8.260;2022-07-29T09:37:27;29.80;11.50
32895;DHT22;19251;49.484;8.260;2022-07-29T09:42:30;30.00;10.30
32895;DHT22;19251;49.484;8.260;2022-07-29T09:47:46;30.30;10.80
32895;DHT22;19251;49.484;8.260;2022-07-29T09:52:52;30.50;10.30
32895;DHT22;19251;49.484;8.260;2022-07-29T09:58:15;30.80;9.30
32895;DHT22;19251;49.484;8.260;2022-07-29T10:03:18;30.90;8.70
32895;DHT22;19251;49.484;8.260;2022-07-29T10:08:25;30.60;7.60
32895;DHT22;19251;49.484;8.260;2022-07-29T10:13:28;30.50;7.30
32895;DHT22;19251;49.484;8.260;2022-07-29T10:18:31;30.80;7.20
32895;DHT22;19251;49.484;8.260;2022-07-29T10:23:34;30.80;6.20
32895;DHT22;19251;49.484;8.260;2022-07-29T10:28:48;31.40;7.00
32895;DHT22;19251;49.484;8.260;2022-07-29T10:39:11;32.00;5.80
32895;DHT22;19251;49.484;8.260;2022-07-29T10:44:19;32.10;4.90
32895;DHT22;19251;49.484;8.260;2022-07-29T10:49:26;32.00;4.20
32895;DHT22;19251;49.484;8.260;2022-07-29T10:59:37;31.60;4.20
32895;DHT22;19251;49.484;8.260;2022-07-29T11:10:26;31.60;5.70
32895;DHT22;19251;49.484;8.260;2022-07-29T11:15:56;31.90;5.40
32895;DHT22;19251;49.484;8.260;2022-07-29T11:20:59;32.20;4.80
32895;DHT22;19251;49.484;8.260;2022-07-29T11:26:18;32.60;3.80
32895;DHT22;19251;49.484;8.260;2022-07-29T11:31:44;32.90;4.00
32895;DHT22;19251;49.484;8.260;2022-07-29T11:47:36;34.00;2.80
32895;DHT22;19251;49.484;8.260;2022-07-29T11:52:45;34.20;2.20
32895;DHT22;19251;49.484;8.260;2022-07-29T11:57:57;34.40;2.00
32895;DHT22;19251;49.484;8.260;2022-07-29T12:03:10;34.60;2.20
32895;DHT22;19251;49.484;8.260;2022-07-29T12:08:18;34.90;1.00
32895;DHT22;19251;49.484;8.260;2022-07-29T12:13:22;34.90;1.00
32895;DHT22;19251;49.484;8.260;2022-07-29T12:18:39;35.00;1.00
32895;DHT22;19251;49.484;8.260;2022-07-29T12:23:55;35.00;1.00
32895;DHT22;19251;49.484;8.260;2022-07-29T12:29:06;35.10;1.00
32895;DHT22;19251;49.484;8.260;2022-07-29T12:34:16;35.00;1.00
32895;DHT22;19251;49.484;8.260;2022-07-29T12:39:19;35.00;1.00
32895;DHT22;19251;49.484;8.260;2022-07-29T12:44:22;34.90;1.00
32895;DHT22;19251;49.484;8.260;2022-07-29T12:49:24;34.80;1.00
32895;DHT22;19251;49.484;8.260;2022-07-29T12:54:26;34.70;1.00
32895;DHT22;19251;49.484;8.260;2022-07-29T12:59:28;34.80;1.00
32895;DHT22;19251;49.484;8.260;2022-07-29T13:04:32;34.80;1.00
32895;DHT22;19251;49.484;8.260;2022-07-29T13:09:43;34.70;1.00
32895;DHT22;19251;49.484;8.260;2022-07-29T13:14:47;34.60;1.00
32895;DHT22;19251;49.484;8.260;2022-07-29T13:20:04;34.60;1.00
32895;DHT22;19251;49.484;8.260;2022-07-29T13:25:10;34.60;1.00
32895;DHT22;19251;49.484;8.260;2022-07-29T13:30:12;34.70;1.00
32895;DHT22;19251;49.484;8.260;2022-07-29T13:35:15;34.70;1.00
32895;DHT22;19251;49.484;8.260;2022-07-29T13:40:17;34.90;1.00
32895;DHT22;19251;49.484;8.260;2022-07-29T13:45:19;35.00;1.00
32895;DHT22;19251;49.484;8.260;2022-07-29T13:50:22;35.20;1.00
32895;DHT22;19251;49.484;8.260;2022-07-29T13:55:24;35.40;1.00
32895;DHT22;19251;49.484;8.260;2022-07-29T14:00:26;35.60;1.00
32895;DHT22;19251;49.484;8.260;2022-07-29T14:05:30;35.80;1.00
32895;DHT22;19251;49.484;8.260;2022-07-29T14:10:32;36.10;1.00
32895;DHT22;19251;49.484;8.260;2022-07-29T14:15:34;36.30;1.00
32895;DHT22;19251;49.484;8.260;2022-07-29T14:20:40;36.40;1.00
32895;DHT22;19251;49.484;8.260;2022-07-29T14:25:42;36.70;1.00
32895;DHT22;19251;49.484;8.260;2022-07-29T14:30:45;37.20;1.00
32895;DHT22;19251;49.484;8.260;2022-07-29T14:35:47;37.80;1.00
32895;DHT22;19251;49.484;8.260;2022-07-29T14:40:50;38.10;1.00
32895;DHT22;19251;49.484;8.260;2022-07-29T14:45:55;38.20;1.00
32895;DHT22;19251;49.484;8.260;2022-07-29T14:51:05;38.20;1.00
32895;DHT22;19251;49.484;8.260;2022-07-29T14:56:10;38.40;1.00
32895;DHT22;19251;49.484;8.260;2022-07-29T15:01:34;38.80;1.00
32895;DHT22;19251;49.484;8.260;2022-07-29T15:06:36;39.30;1.00
32895;DHT22;19251;49.484;8.260;2022-07-29T15:11:39;39.60;1.00
32895;DHT22;19251;49.484;8.260;2022-07-29T15:16:41;40.20;1.00
32895;DHT22;19251;49.484;8.260;2022-07-29T15:21:48;41.00;1.00
32895;DHT22;19251;49.484;8.260;2022-07-29T15:26:51;41.50;1.00
32895;DHT22;19251;49.484;8.260;2022-07-29T15:31:54;42.00;1.00
32895;DHT22;19251;49.484;8.260;2022-07-29T15:36:57;42.20;1.00
32895;DHT22;19251;49.484;8.260;2022-07-29T15:41:59;42.20;1.00
32895;DHT22;19251;49.484;8.260;2022-07-29T15:47:02;42.50;1.00
32895;DHT22;19251;49.484;8.260;2022-07-29T15:52:07;42.80;1.00
32895;DHT22;19251;49.484;8.260;2022-07-29T15:57:10;43.10;1.00
32895;DHT22;19251;49.484;8.260;2022-07-29T16:02:12;43.10;1.00
32895;DHT22;19251;49.484;8.260;2022-07-29T16:07:15;43.80;1.00
32895;DHT22;19251;49.484;8.260;2022-07-29T16:12:18;44.20;1.00
32895;DHT22;19251;49.484;8.260;2022-07-29T16:17:20;43.70;1.00
32895;DHT22;19251;49.484;8.260;2022-07-29T16:22:22;43.40;1.00
32895;DHT22;19251;49.484;8.260;2022-07-29T16:27:24;43.60;1.00
32895;DHT22;19251;49.484;8.260;2022-07-29T16:32:39;44.10;1.00
32895;DHT22;19251;49.484;8.260;2022-07-29T16:37:41;44.60;1.00
32895;DHT22;19251;49.484;8.260;2022-07-29T16:42:43;45.10;1.00
32895;DHT22;19251;49.484;8.260;2022-07-29T16:47:48;45.50;1.00
32895;DHT22;19251;49.484;8.260;2022-07-29T16:52:51;45.50;1.00
32895;DHT22;19251;49.484;8.260;2022-07-29T16:57:53;45.50;1.00
32895;DHT22;19251;49.484;8.260;2022-07-29T17:02:55;45.30;1.00
32895;DHT22;19251;49.484;8.260;2022-07-29T17:07:57;45.00;1.00
32895;DHT22;19251;49.484;8.260;2022-07-29T17:13:00;44.30;1.00
32895;DHT22;19251;49.484;8.260;2022-07-29T17:18:02;43.00;1.00
32895;DHT22;19251;49.484;8.260;2022-07-29T17:23:13;41.60;1.00
32895;DHT22;19251;49.484;8.260;2022-07-29T17:28:16;40.40;1.00
32895;DHT22;19251;49.484;8.260;2022-07-29T17:33:18;39.10;1.00
32895;DHT22;19251;49.484;8.260;2022-07-29T17:38:20;38.20;1.00
32895;DHT22;19251;49.484;8.260;2022-07-29T17:43:22;37.30;1.00
32895;DHT22;19251;49.484;8.260;2022-07-29T17:48:26;36.50;1.00
32895;DHT22;19251;49.484;8.260;2022-07-29T17:53:28;35.90;1.00
32895;DHT22;19251;49.484;8.260;2022-07-29T17:58:32;35.30;1.00
32895;DHT22;19251;49.484;8.260;2022-07-29T18:03:35;34.80;1.00
32895;DHT22;19251;49.484;8.260;2022-07-29T18:08:39;34.20;1.00
32895;DHT22;19251;49.484;8.260;2022-07-29T18:13:42;33.80;1.00
32895;DHT22;19251;49.484;8.260;2022-07-29T18:18:44;33.50;1.00
32895;DHT22;19251;49.484;8.260;2022-07-29T18:23:47;33.10;1.00
32895;DHT22;19251;49.484;8.260;2022-07-29T18:28:51;32.80;1.00
32895;DHT22;19251;49.484;8.260;2022-07-29T18:33:53;32.60;1.00
32895;DHT22;19251;49.484;8.260;2022-07-29T18:39:01;32.40;1.00
32895;DHT22;19251;49.484;8.260;2022-07-29T18:44:03;32.20;1.00
32895;DHT22;19251;49.484;8.260;2022-07-29T18:49:06;32.00;1.00
32895;DHT22;19251;49.484;8.260;2022-07-29T18:54:08;31.90;1.00
32895;DHT22;19251;49.484;8.260;2022-07-29T18:59:11;31.70;1.90
32895;DHT22;19251;49.484;8.260;2022-07-29T19:04:18;31.50;2.50
32895;DHT22;19251;49.484;8.260;2022-07-29T19:09:20;31.20;3.00
32895;DHT22;19251;49.484;8.260;2022-07-29T19:14:22;31.00;4.40
32895;DHT22;19251;49.484;8.260;2022-07-29T19:19:24;30.80;4.90
32895;DHT22;19251;49.484;8.260;2022-07-29T19:24:27;30.60;5.40
32895;DHT22;19251;49.484;8.260;2022-07-29T19:29:29;30.40;5.90
32895;DHT22;19251;49.484;8.260;2022-07-29T19:34:33;30.10;6.70
32895;DHT22;19251;49.484;8.260;2022-07-29T19:39:35;29.90;7.10
32895;DHT22;19251;49.484;8.260;2022-07-29T19:44:37;29.70;6.70
32895;DHT22;19251;49.484;8.260;2022-07-29T19:49:40;29.50;8.00
32895;DHT22;19251;49.484;8.260;2022-07-29T19:54:42;29.20;7.60
32895;DHT22;19251;49.484;8.260;2022-07-29T19:59:44;29.30;8.70
32895;DHT22;19251;49.484;8.260;2022-07-29T20:04:47;28.90;10.70
32895;DHT22;19251;49.484;8.260;2022-07-29T20:09:49;28.70;11.40
32895;DHT22;19251;49.484;8.260;2022-07-29T20:14:54;28.40;10.80
32895;DHT22;19251;49.484;8.260;2022-07-29T20:19:56;28.10;11.70
32895;DHT22;19251;49.484;8.260;2022-07-29T20:25:01;27.80;12.10
32895;DHT22;19251;49.484;8.260;2022-07-29T20:30:03;27.40;14.00
32895;DHT22;19251;49.484;8.260;2022-07-29T20:35:08;27.10;13.80
32895;DHT22;19251;49.484;8.260;2022-07-29T20:45:16;26.40;15.90
32895;DHT22;19251;49.484;8.260;2022-07-29T20:50:19;26.00;17.20
32895;DHT22;19251;49.484;8.260;2022-07-29T20:55:25;25.80;18.30
32895;DHT22;19251;49.484;8.260;2022-07-29T21:00:29;25.50;19.00
32895;DHT22;19251;49.484;8.260;2022-07-29T21:05:32;25.10;19.50
32895;DHT22;19251;49.484;8.260;2022-07-29T21:10:34;24.90;20.10
32895;DHT22;19251;49.484;8.260;2022-07-29T21:15:36;24.70;20.50
32895;DHT22;19251;49.484;8.260;2022-07-29T21:20:39;24.50;20.70
32895;DHT22;19251;49.484;8.260;2022-07-29T21:25:41;24.40;20.60
32895;DHT22;19251;49.484;8.260;2022-07-29T21:30:45;24.30;21.30
32895;DHT22;19251;49.484;8.260;2022-07-29T21:35:47;23.90;22.00
32895;DHT22;19251;49.484;8.260;2022-07-29T21:41:10;24.20;21.90
32895;DHT22;19251;49.484;8.260;2022-07-29T21:46:14;24.00;22.90
32895;DHT22;19251;49.484;8.260;2022-07-29T21:51:18;23.90;23.30
32895;DHT22;19251;49.484;8.260;2022-07-29T21:56:20;24.10;23.80
32895;DHT22;19251;49.484;8.260;2022-07-29T22:01:25;23.90;24.00
32895;DHT22;19251;49.484;8.260;2022-07-29T22:06:27;23.80;24.20
32895;DHT22;19251;49.484;8.260;2022-07-29T22:11:30;23.90;24.50
32895;DHT22;19251;49.484;8.260;2022-07-29T22:16:32;23.80;24.40
32895;DHT22;19251;49.484;8.260;2022-07-29T22:21:35;23.80;24.40
32895;DHT22;19251;49.484;8.260;2022-07-29T22:26:37;23.70;24.40
32895;DHT22;19251;49.484;8.260;2022-07-29T22:31:39;23.70;24.40
32895;DHT22;19251;49.484;8.260;2022-07-29T22:36:42;23.60;24.00
32895;DHT22;19251;49.484;8.260;2022-07-29T22:41:44;24.00;25.20
32895;DHT22;19251;49.484;8.260;2022-07-29T22:46:46;23.40;23.90
32895;DHT22;19251;49.484;8.260;2022-07-29T22:51:48;23.60;24.70
32895;DHT22;19251;49.484;8.260;2022-07-29T22:56:51;23.60;24.40
32895;DHT22;19251;49.484;8.260;2022-07-29T23:01:54;23.60;25.20
32895;DHT22;19251;49.484;8.260;2022-07-29T23:06:57;23.20;24.20
32895;DHT22;19251;49.484;8.260;2022-07-29T23:11:59;23.40;25.20
32895;DHT22;19251;49.484;8.260;2022-07-29T23:17:01;23.40;25.20
32895;DHT22;19251;49.484;8.260;2022-07-29T23:22:04;23.30;25.20
32895;DHT22;19251;49.484;8.260;2022-07-29T23:27:06;23.10;25.30
32895;DHT22;19251;49.484;8.260;2022-07-29T23:32:08;23.00;25.20
32895;DHT22;19251;49.484;8.260;2022-07-29T23:37:11;22.90;25.20
32895;DHT22;19251;49.484;8.260;2022-07-29T23:42:13;22.80;25.40
32895;DHT22;19251;49.484;8.260;2022-07-29T23:47:15;22.50;25.30
32895;DHT22;19251;49.484;8.260;2022-07-29T23:52:17;22.40;24.80
32895;DHT22;19251;49.484;8.260;2022-07-29T23:57:19;22.20;25.30
